Time;durP1;ratioP1;P1;durP2;ratioP2;P2;SDS_P1;SDS_P2;PMS_P1;PMS_P2;Temp;Humidity;BMP_temperature;BMP_pressure;BME280_temperature;BME280_humidity;BME280_pressure;Samples;Min_cycle;Max_cycle;Signal;HPM_P1;HPM_P2
2022/06/04 00:02:05;;;;;;;0.10;0.10;;;17.60;99.90;;;;;;5031966;28;20033;-72
2022/06/04 00:04:31;;;;;;;0.10;0.10;;;17.50;99.90;;;;;;5032007;28;20026;-72
2022/06/04 00:06:57;;;;;;;0.03;0.03;;;17.40;99.90;;;;;;5031784;28;20100;-72
2022/06/04 00:09:26;;;;;;;0.00;0.00;;;17.20;99.90;;;;;;5031873;28;20104;-72
2022/06/04 00:17:21;;;;;;;0.00;0.00;;;17.40;99.90;;;;;;5031739;28;20132;-72
2022/06/04 00:19:47;;;;;;;0.28;0.28;;;17.40;99.90;;;;;;5031699;28;20104;-72
2022/06/04 00:22:13;;;;;;;0.00;0.00;;;17.30;99.90;;;;;;5031769;28;20025;-72
2022/06/04 00:24:41;;;;;;;0.10;0.10;;;17.20;99.90;;;;;;5031858;28;20362;-72
2022/06/04 00:27:17;;;;;;;0.10;0.10;;;17.10;99.90;;;;;;5031619;28;20489;-72
2022/06/04 00:29:43;;;;;;;0.10;0.10;;;17.20;99.90;;;;;;5031768;28;20021;-72
2022/06/04 00:32:09;;;;;;;0.00;0.00;;;17.20;99.90;;;;;;5031737;28;20119;-72
2022/06/04 00:34:35;;;;;;;0.03;0.03;;;17.10;99.90;;;;;;5031696;28;20026;-72
2022/06/04 00:37:00;;;;;;;0.10;0.10;;;17.20;99.90;;;;;;5031482;28;20030;-73
2022/06/04 00:39:26;;;;;;;0.00;0.00;;;17.20;99.90;;;;;;5014204;28;20096;-74
2022/06/04 00:41:56;;;;;;;0.00;0.00;;;17.10;99.90;;;;;;5031838;28;20022;-73
2022/06/04 00:44:31;;;;;;;0.10;0.10;;;17.10;99.90;;;;;;5031753;28;20125;-73
2022/06/04 00:47:13;;;;;;;0.10;0.10;;;17.20;99.90;;;;;;5013809;28;20109;-73
2022/06/04 00:49:39;;;;;;;0.10;0.10;;;17.30;99.90;;;;;;5031659;28;20021;-73
2022/06/04 00:52:09;;;;;;;0.10;0.10;;;17.20;99.90;;;;;;5031549;28;20028;-73
2022/06/04 00:54:35;;;;;;;0.10;0.10;;;17.00;99.90;;;;;;5031677;28;20359;-73
2022/06/04 00:57:07;;;;;;;0.10;0.10;;;16.90;99.90;;;;;;5031250;28;20021;-73
2022/06/04 01:00:03;;;;;;;0.10;0.10;;;17.10;99.90;;;;;;5031501;28;20166;-74
2022/06/04 01:02:44;;;;;;;0.63;0.63;;;17.10;99.90;;;;;;5061048;23;20049;-73
2022/06/04 01:05:31;;;;;;;0.17;0.17;;;17.10;99.90;;;;;;5033673;28;20078;-73
2022/06/04 01:08:38;;;;;;;0.10;0.10;;;16.90;99.90;;;;;;5051153;28;20159;-73
2022/06/04 01:11:04;;;;;;;0.10;0.10;;;17.00;99.90;;;;;;5020266;28;20037;-73
2022/06/04 01:13:57;;;;;;;0.10;0.10;;;17.10;99.90;;;;;;5033423;28;20539;-73
2022/06/04 01:16:51;;;;;;;0.10;0.10;;;17.10;99.90;;;;;;5051274;28;20033;-73
2022/06/04 01:19:49;;;;;;;0.10;0.10;;;17.00;99.90;;;;;;5051310;28;20488;-73
2022/06/04 01:23:03;;;;;;;0.10;0.10;;;17.00;99.90;;;;;;5051248;28;20022;-73
2022/06/04 01:26:07;;;;;;;0.10;0.10;;;17.10;99.90;;;;;;5036961;28;20033;-73
2022/06/04 01:28:39;;;;;;;0.10;0.10;;;17.10;99.90;;;;;;5054621;28;20108;-73
2022/06/04 01:31:07;;;;;;;0.10;0.10;;;17.20;99.90;;;;;;5054811;28;20107;-73
2022/06/04 01:33:42;;;;;;;0.10;0.10;;;17.30;99.90;;;;;;5036800;28;20117;-73
2022/06/04 01:36:14;;;;;;;0.10;0.10;;;17.10;99.90;;;;;;5020223;28;20040;-73
2022/06/04 01:38:48;;;;;;;0.05;0.05;;;17.10;99.90;;;;;;5054638;28;20025;-73
2022/06/04 01:41:22;;;;;;;0.10;0.10;;;17.00;99.90;;;;;;5054619;28;20021;-73
2022/06/04 01:44:20;;;;;;;0.10;0.10;;;17.10;99.90;;;;;;5036745;28;20029;-72
2022/06/04 01:46:51;;;;;;;0.10;0.10;;;17.00;99.90;;;;;;5049304;28;20107;-74
2022/06/04 01:49:29;;;;;;;0.10;0.10;;;17.00;99.90;;;;;;5036441;28;20028;-73
2022/06/04 01:52:05;;;;;;;0.00;0.00;;;16.90;99.90;;;;;;5054477;28;20056;-73
2022/06/04 01:54:43;;;;;;;0.00;0.00;;;16.90;99.90;;;;;;5054447;28;20488;-73
2022/06/04 01:57:20;;;;;;;0.10;0.10;;;16.90;99.90;;;;;;5036059;28;20033;-73
2022/06/04 01:59:56;;;;;;;0.10;0.10;;;16.80;99.90;;;;;;5054177;28;20017;-73
2022/06/04 02:02:33;;;;;;;0.10;0.10;;;16.80;99.90;;;;;;5054129;28;20029;-73
2022/06/04 02:05:02;;;;;;;0.10;0.10;;;16.70;99.90;;;;;;5036350;28;20021;-73
2022/06/04 02:07:36;;;;;;;0.10;0.10;;;16.70;99.90;;;;;;5035588;28;20388;-73
2022/06/04 02:10:40;;;;;;;0.10;0.10;;;16.70;99.90;;;;;;5054027;28;20029;-73
2022/06/04 02:13:10;;;;;;;0.10;0.10;;;16.70;99.90;;;;;;4995821;28;20068;-73
2022/06/04 02:15:46;;;;;;;0.20;0.20;;;16.60;99.90;;;;;;5035958;28;20586;-73
2022/06/04 02:18:12;;;;;;;0.20;0.20;;;16.40;99.90;;;;;;5053616;28;20021;-73
2022/06/04 02:20:38;;;;;;;0.10;0.10;;;16.30;99.90;;;;;;5053832;28;20090;-73
2022/06/04 02:23:05;;;;;;;0.10;0.10;;;16.10;99.90;;;;;;5053823;28;20028;-73
2022/06/04 02:25:31;;;;;;;0.10;0.10;;;16.30;99.90;;;;;;5035827;28;20025;-73
2022/06/04 02:27:57;;;;;;;0.00;0.00;;;16.30;99.90;;;;;;5035708;28;20455;-73
2022/06/04 02:30:30;;;;;;;0.10;0.10;;;16.40;99.90;;;;;;5053500;28;20103;-73
2022/06/04 02:33:28;;;;;;;0.10;0.10;;;16.40;99.90;;;;;;5053720;28;20028;-73
2022/06/04 02:36:22;;;;;;;0.03;0.03;;;16.40;99.90;;;;;;5034513;28;20047;-73
2022/06/04 02:38:56;;;;;;;0.10;0.10;;;16.40;99.90;;;;;;5028192;28;20059;-73
2022/06/04 02:41:27;;;;;;;0.10;0.10;;;16.50;99.90;;;;;;5035717;28;20025;-73
2022/06/04 02:43:57;;;;;;;0.00;0.00;;;16.40;99.90;;;;;;5053458;28;20053;-73
2022/06/04 02:46:35;;;;;;;0.00;0.00;;;16.40;99.90;;;;;;5035253;28;20439;-73
2022/06/04 02:49:10;;;;;;;0.00;0.00;;;16.30;99.90;;;;;;5018665;28;20025;-73
2022/06/04 02:51:40;;;;;;;0.05;0.05;;;16.30;99.90;;;;;;5035542;28;20059;-73
2022/06/04 02:54:16;;;;;;;0.10;0.10;;;16.20;99.90;;;;;;5035414;28;20025;-73
2022/06/04 02:56:43;;;;;;;0.00;0.00;;;16.00;99.90;;;;;;5018607;28;20546;-73
2022/06/04 02:59:12;;;;;;;0.10;0.10;;;16.10;99.90;;;;;;5035205;28;20522;-73
2022/06/04 03:01:41;;;;;;;0.10;0.10;;;16.10;99.90;;;;;;5034981;28;20039;-73
2022/06/04 03:04:08;;;;;;;0.10;0.10;;;16.30;99.90;;;;;;5034880;28;20543;-73
2022/06/04 03:06:33;;;;;;;0.10;0.10;;;16.30;99.90;;;;;;5052828;28;20439;-73
2022/06/04 03:09:02;;;;;;;0.10;0.10;;;16.50;99.90;;;;;;5052854;28;20036;-73
2022/06/04 03:11:29;;;;;;;0.10;0.10;;;16.40;99.90;;;;;;5034857;28;20033;-73
2022/06/04 03:13:55;;;;;;;0.13;0.13;;;16.30;99.90;;;;;;5052751;28;20079;-73
2022/06/04 03:16:21;;;;;;;0.10;0.10;;;16.20;99.90;;;;;;5052549;28;20430;-73
2022/06/04 03:18:47;;;;;;;0.20;0.20;;;16.20;99.90;;;;;;5034785;28;20021;-73
2022/06/04 03:21:12;;;;;;;0.10;0.10;;;16.10;99.90;;;;;;5052686;28;20025;-73
2022/06/04 03:23:39;;;;;;;0.30;0.30;;;16.10;99.90;;;;;;5034622;28;20021;-73
2022/06/04 03:26:05;;;;;;;0.15;0.15;;;16.10;99.90;;;;;;5034697;28;20032;-73
2022/06/04 03:28:31;;;;;;;5.70;4.68;;;16.10;99.90;;;;;;5034744;28;20024;-73
2022/06/04 03:30:57;;;;;;;0.57;0.57;;;16.00;99.90;;;;;;5052468;28;20036;-73
2022/06/04 03:33:23;;;;;;;0.10;0.10;;;16.00;99.90;;;;;;5052456;28;20029;-73
2022/06/04 03:35:49;;;;;;;0.10;0.10;;;16.00;99.90;;;;;;5034361;28;20032;-73
2022/06/04 03:38:15;;;;;;;0.10;0.10;;;16.10;99.90;;;;;;5034489;28;20487;-73
2022/06/04 03:40:41;;;;;;;0.10;0.10;;;16.10;99.90;;;;;;5052337;28;20025;-73
2022/06/04 03:43:06;;;;;;;1.23;0.30;;;16.30;99.90;;;;;;5034463;28;20044;-73
2022/06/04 03:45:32;;;;;;;0.05;0.05;;;16.30;99.90;;;;;;5034477;28;20029;-73
2022/06/04 03:47:58;;;;;;;2.92;1.30;;;16.20;99.90;;;;;;5033925;28;20108;-73
2022/06/04 03:50:29;;;;;;;0.10;0.10;;;16.10;99.90;;;;;;5034480;28;20511;-72
2022/06/04 03:52:55;;;;;;;0.10;0.10;;;16.10;99.90;;;;;;5017890;28;20136;-73
2022/06/04 03:55:21;;;;;;;0.10;0.10;;;16.20;99.90;;;;;;5052293;28;20511;-73
2022/06/04 03:57:48;;;;;;;0.30;0.30;;;16.30;99.90;;;;;;5033823;28;20021;-73
2022/06/04 04:00:17;;;;;;;0.10;0.10;;;16.30;99.90;;;;;;5052020;28;20096;-73
2022/06/04 04:03:04;;;;;;;0.10;0.10;;;16.30;99.90;;;;;;5034080;28;20125;-73
2022/06/04 04:05:37;;;;;;;0.10;0.10;;;16.30;99.90;;;;;;5051137;28;20039;-74
2022/06/04 04:08:06;;;;;;;0.00;0.00;;;16.50;99.90;;;;;;5051701;28;20044;-73
2022/06/04 04:10:33;;;;;;;0.10;0.10;;;16.50;99.90;;;;;;5033852;28;20025;-74
2022/06/04 04:12:59;;;;;;;0.10;0.10;;;16.60;99.90;;;;;;5034224;28;20025;-73
2022/06/04 04:15:26;;;;;;;0.10;0.10;;;16.60;99.90;;;;;;5033768;28;20032;-74
2022/06/04 04:17:52;;;;;;;0.20;0.20;;;16.50;99.90;;;;;;5033709;28;20052;-73
2022/06/04 04:20:21;;;;;;;0.10;0.10;;;16.50;99.90;;;;;;5033849;28;20021;-73
2022/06/04 04:22:47;;;;;;;2.90;1.48;;;16.50;99.90;;;;;;5051799;28;20017;-73
2022/06/04 04:25:15;;;;;;;0.80;0.65;;;16.40;99.90;;;;;;5017544;28;20077;-73
2022/06/04 04:27:41;;;;;;;0.10;0.10;;;16.30;99.90;;;;;;5051338;28;20025;-73
2022/06/04 04:30:10;;;;;;;0.10;0.10;;;16.40;99.90;;;;;;5051786;28;20036;-73
2022/06/04 04:32:36;;;;;;;0.20;0.20;;;16.40;99.90;;;;;;5033752;28;20064;-73
2022/06/04 04:35:05;;;;;;;0.80;0.77;;;16.40;99.90;;;;;;5033835;28;20400;-73
2022/06/04 04:37:31;;;;;;;0.20;0.20;;;16.50;99.90;;;;;;5023128;28;20078;-73
2022/06/04 04:39:57;;;;;;;0.20;0.20;;;16.60;99.90;;;;;;5035855;28;20420;-73
2022/06/04 04:42:24;;;;;;;0.00;0.00;;;16.70;99.90;;;;;;5053692;28;20100;-73
2022/06/04 04:44:50;;;;;;;0.10;0.10;;;16.80;99.90;;;;;;5047745;28;20396;-73
2022/06/04 04:47:16;;;;;;;3.33;2.13;;;16.90;99.90;;;;;;5051313;28;20029;-73
2022/06/04 04:49:41;;;;;;;0.10;0.10;;;17.00;99.90;;;;;;5033663;28;20079;-73
2022/06/04 04:52:07;;;;;;;0.10;0.10;;;17.10;99.90;;;;;;5051336;28;20037;-73
2022/06/04 04:54:34;;;;;;;0.00;0.00;;;17.10;99.90;;;;;;5067287;28;20074;-73
2022/06/04 04:57:00;;;;;;;0.10;0.10;;;17.40;99.90;;;;;;5071262;28;20028;-73
2022/06/04 04:59:26;;;;;;;0.10;0.10;;;17.60;99.90;;;;;;5055419;28;20199;-73
2022/06/04 05:01:52;;;;;;;0.00;0.00;;;17.80;99.90;;;;;;5074973;28;20060;-73
2022/06/04 05:04:17;;;;;;;0.10;0.10;;;17.90;99.90;;;;;;5075257;28;20059;-73
2022/06/04 05:06:43;;;;;;;0.10;0.10;;;17.80;99.90;;;;;;5074988;28;20029;-73
2022/06/04 05:09:09;;;;;;;12.65;6.53;;;17.80;99.90;;;;;;5075008;28;20077;-73
2022/06/04 05:11:36;;;;;;;0.10;0.10;;;17.80;99.90;;;;;;5059396;28;20060;-74
2022/06/04 05:14:02;;;;;;;0.00;0.00;;;17.90;99.90;;;;;;5054998;28;20036;-73
2022/06/04 05:16:32;;;;;;;0.10;0.10;;;18.00;99.90;;;;;;5036225;28;20472;-73
2022/06/04 05:18:58;;;;;;;0.08;0.08;;;18.10;99.90;;;;;;5054823;28;20427;-73
2022/06/04 05:21:27;;;;;;;0.20;0.20;;;18.20;99.90;;;;;;5036843;28;20411;-74
2022/06/04 05:23:56;;;;;;;0.10;0.10;;;18.30;99.90;;;;;;5054837;28;20017;-73
2022/06/04 05:26:23;;;;;;;0.00;0.00;;;18.30;99.90;;;;;;5036785;28;20020;-73
2022/06/04 05:28:50;;;;;;;0.10;0.10;;;18.40;99.90;;;;;;5036868;28;20025;-73
2022/06/04 05:31:16;;;;;;;0.05;0.05;;;18.40;99.90;;;;;;5020674;28;20063;-73
2022/06/04 05:33:42;;;;;;;0.10;0.10;;;18.60;99.90;;;;;;5036673;28;20040;-74
2022/06/04 05:36:08;;;;;;;0.05;0.05;;;18.60;99.90;;;;;;5036660;28;20025;-73
2022/06/04 05:38:34;;;;;;;0.00;0.00;;;18.70;99.90;;;;;;5019997;28;20040;-73
2022/06/04 05:41:09;;;;;;;0.10;0.10;;;18.80;99.90;;;;;;5054493;28;20420;-73
2022/06/04 05:43:35;;;;;;;0.32;0.20;;;18.90;99.90;;;;;;5036744;28;20480;-74
2022/06/04 05:46:07;;;;;;;0.10;0.10;;;18.90;99.90;;;;;;5054365;28;20025;-73
2022/06/04 05:48:35;;;;;;;0.10;0.10;;;19.00;99.90;;;;;;5056266;28;20394;-73
2022/06/04 05:51:01;;;;;;;0.10;0.10;;;19.10;99.90;;;;;;5057592;28;20024;-73
2022/06/04 05:53:27;;;;;;;0.00;0.00;;;19.10;99.90;;;;;;5054181;28;20021;-73
2022/06/04 05:55:53;;;;;;;0.08;0.08;;;19.20;99.90;;;;;;5054302;28;20021;-73
2022/06/04 05:58:19;;;;;;;0.03;0.03;;;19.20;99.90;;;;;;5035951;28;20396;-73
2022/06/04 06:00:45;;;;;;;0.17;0.17;;;19.30;99.90;;;;;;5054002;28;20017;-73
2022/06/04 06:03:11;;;;;;;0.00;0.00;;;19.50;99.90;;;;;;5036090;28;20024;-73
2022/06/04 06:05:42;;;;;;;0.10;0.10;;;19.40;99.90;;;;;;5053974;28;20477;-73
2022/06/04 06:08:09;;;;;;;0.00;0.00;;;19.50;99.90;;;;;;5053895;28;20104;-73
2022/06/04 06:10:42;;;;;;;0.10;0.10;;;19.70;99.90;;;;;;5053707;28;20032;-73
2022/06/04 06:13:08;;;;;;;0.05;0.05;;;19.70;99.90;;;;;;5036157;28;20021;-73
2022/06/04 06:15:35;;;;;;;0.10;0.10;;;19.90;99.90;;;;;;5053873;28;20071;-73
2022/06/04 06:18:01;;;;;;;0.10;0.10;;;20.10;99.90;;;;;;5035492;28;20484;-73
2022/06/04 06:20:27;;;;;;;0.10;0.10;;;20.30;99.90;;;;;;5036211;28;20110;-74
2022/06/04 06:22:53;;;;;;;0.10;0.10;;;20.50;99.90;;;;;;5053834;28;20308;-73
2022/06/04 06:25:18;;;;;;;0.10;0.10;;;20.50;99.90;;;;;;5053616;28;20025;-73
2022/06/04 06:27:44;;;;;;;0.10;0.10;;;20.60;99.90;;;;;;5019027;28;20053;-73
2022/06/04 06:30:10;;;;;;;0.10;0.10;;;20.80;99.90;;;;;;5035873;28;20025;-74
2022/06/04 06:32:36;;;;;;;0.05;0.05;;;20.90;99.90;;;;;;5053490;28;20029;-73
2022/06/04 06:35:03;;;;;;;0.10;0.10;;;21.20;99.90;;;;;;5053506;28;20036;-73
2022/06/04 06:37:29;;;;;;;0.10;0.10;;;21.20;99.90;;;;;;5053172;28;20061;-73
2022/06/04 06:39:55;;;;;;;0.10;0.10;;;21.30;99.90;;;;;;5035798;28;20049;-73
2022/06/04 06:42:22;;;;;;;0.10;0.10;;;21.50;99.90;;;;;;5018991;28;20486;-73
2022/06/04 06:44:48;;;;;;;0.00;0.00;;;21.60;99.90;;;;;;5043197;28;20110;-73
2022/06/04 06:47:14;;;;;;;0.10;0.10;;;21.80;99.90;;;;;;5055086;28;20482;-73
2022/06/04 06:49:40;;;;;;;0.10;0.10;;;21.60;99.90;;;;;;5072982;28;20044;-72
2022/06/04 06:52:06;;;;;;;0.00;0.00;;;21.70;99.90;;;;;;5055400;28;20039;-71
2022/06/04 06:54:34;;;;;;;0.00;0.00;;;21.80;99.90;;;;;;5055744;28;20047;-75
2022/06/04 06:57:03;;;;;;;0.13;0.13;;;21.90;99.90;;;;;;5057353;28;20383;-78
2022/06/04 06:59:29;;;;;;;0.22;0.22;;;21.60;99.90;;;;;;5035785;28;20491;-75
2022/06/04 07:01:56;;;;;;;0.00;0.00;;;21.50;99.90;;;;;;5053594;28;20480;-75
2022/06/04 07:04:22;;;;;;;0.00;0.00;;;21.50;99.90;;;;;;5069938;28;20416;-78
2022/06/04 07:06:58;;;;;;;0.10;0.10;;;21.80;99.90;;;;;;5105881;22;20029;-76
2022/06/04 07:09:30;;;;;;;0.08;0.08;;;21.80;99.90;;;;;;5055107;28;20044;-75
2022/06/04 07:11:57;;;;;;;0.10;0.10;;;21.80;99.90;;;;;;5049858;28;20032;-74
2022/06/04 07:14:23;;;;;;;0.45;0.45;;;21.60;99.90;;;;;;5043419;28;20317;-75
2022/06/04 07:16:51;;;;;;;0.20;0.20;;;21.70;99.90;;;;;;5034546;28;20057;-77
2022/06/04 07:19:18;;;;;;;0.17;0.17;;;21.60;99.90;;;;;;5036868;28;20524;-74
2022/06/04 07:21:44;;;;;;;0.70;0.57;;;21.50;99.90;;;;;;4998616;28;20071;-72
2022/06/04 07:24:11;;;;;;;0.00;0.00;;;21.70;99.90;;;;;;5033816;28;20030;-72
2022/06/04 07:26:37;;;;;;;0.00;0.00;;;21.90;99.90;;;;;;5033311;28;20033;-75
2022/06/04 07:29:04;;;;;;;0.00;0.00;;;22.30;99.90;;;;;;5015703;28;20026;-75
2022/06/04 07:31:31;;;;;;;0.10;0.10;;;22.60;99.90;;;;;;5032583;28;20025;-75
2022/06/04 07:33:58;;;;;;;0.45;0.38;;;22.90;99.90;;;;;;5032583;28;20022;-72
2022/06/04 07:36:30;;;;;;;0.00;0.00;;;23.10;99.90;;;;;;5032240;28;20116;-73
2022/06/04 07:38:56;;;;;;;0.00;0.00;;;23.10;99.90;;;;;;5032102;28;20096;-74
2022/06/04 07:41:30;;;;;;;0.00;0.00;;;23.00;99.90;;;;;;5032798;28;20025;-73
2022/06/04 07:43:57;;;;;;;0.00;0.00;;;23.20;99.90;;;;;;5032284;28;20024;-73
2022/06/04 07:46:24;;;;;;;0.20;0.20;;;23.30;99.90;;;;;;5031566;28;20389;-73
2022/06/04 07:48:50;;;;;;;0.10;0.10;;;23.10;99.90;;;;;;5019026;28;20025;-76
2022/06/04 07:51:17;;;;;;;1.60;0.52;;;23.30;99.90;;;;;;5032994;28;20044;-76
2022/06/04 07:53:43;;;;;;;0.10;0.10;;;23.20;99.90;;;;;;5015561;28;20570;-73
2022/06/04 07:56:12;;;;;;;0.25;0.25;;;23.20;99.90;;;;;;5014954;28;20105;-73
2022/06/04 07:58:39;;;;;;;0.63;0.63;;;22.90;99.90;;;;;;5015054;28;20021;-73
2022/06/04 08:01:06;;;;;;;0.20;0.20;;;22.60;99.90;;;;;;5014478;28;20033;-73
2022/06/04 08:03:36;;;;;;;0.20;0.20;;;22.60;99.90;;;;;;5032573;28;20104;-73
2022/06/04 08:06:03;;;;;;;0.05;0.05;;;22.80;99.90;;;;;;5032607;28;20120;-73
2022/06/04 08:08:30;;;;;;;0.00;0.00;;;22.90;99.90;;;;;;5014879;28;20057;-73
2022/06/04 08:10:58;;;;;;;0.00;0.00;;;23.00;99.90;;;;;;5014722;28;20030;-73
2022/06/04 08:13:28;;;;;;;0.17;0.17;;;23.10;99.90;;;;;;5015125;28;20524;-73
2022/06/04 08:16:00;;;;;;;0.85;0.45;;;23.20;99.90;;;;;;5032657;28;20017;-73
2022/06/04 08:18:26;;;;;;;0.00;0.00;;;23.10;99.90;;;;;;5014870;28;20021;-74
2022/06/04 08:20:55;;;;;;;0.25;0.25;;;23.10;99.90;;;;;;5032109;28;20025;-74
2022/06/04 08:23:21;;;;;;;0.10;0.10;;;23.20;99.90;;;;;;5014479;28;20022;-74
2022/06/04 08:25:50;;;;;;;0.10;0.10;;;23.40;99.90;;;;;;5014872;28;20088;-73
2022/06/04 08:28:16;;;;;;;0.00;0.00;;;23.20;99.90;;;;;;5032045;28;20029;-74
2022/06/04 08:30:43;;;;;;;0.25;0.25;;;23.10;99.90;;;;;;5031876;28;20029;-74
2022/06/04 08:33:09;;;;;;;0.22;0.22;;;23.10;99.90;;;;;;5015500;28;20485;-75
2022/06/04 08:35:35;;;;;;;0.65;0.65;;;23.60;99.90;;;;;;5018887;28;20548;-73
2022/06/04 08:38:01;;;;;;;0.10;0.10;;;23.70;99.90;;;;;;5036335;28;20030;-74
2022/06/04 08:40:35;;;;;;;0.38;0.38;;;24.00;99.90;;;;;;5036597;28;20018;-73
2022/06/04 08:43:13;;;;;;;0.32;0.32;;;24.30;99.90;;;;;;5037145;28;20049;-74
2022/06/04 08:45:39;;;;;;;0.20;0.20;;;24.30;98.60;;;;;;5037155;28;20492;-72
2022/06/04 08:48:15;;;;;;;0.10;0.10;;;24.70;97.40;;;;;;5036140;28;20079;-72
2022/06/04 08:50:41;;;;;;;0.65;0.55;;;25.00;92.30;;;;;;5036512;28;20025;-74
2022/06/04 08:53:24;;;;;;;0.30;0.30;;;25.00;92.70;;;;;;5036857;28;20052;-77
2022/06/04 08:58:51;;;;;;;0.00;0.00;;;25.40;92.00;;;;;;5036036;28;20031;-73
2022/06/04 09:01:25;;;;;;;0.10;0.10;;;25.40;90.90;;;;;;5036156;28;20018;-73
2022/06/04 09:04:14;;;;;;;0.00;0.00;;;25.80;90.30;;;;;;5035870;28;20021;-73
2022/06/04 09:06:54;;;;;;;26.10;5.22;;;25.40;88.30;;;;;;5018170;28;20477;-73
2022/06/04 09:09:27;;;;;;;0.00;0.00;;;25.10;87.30;;;;;;5001593;28;20477;-74
2022/06/04 09:12:26;;;;;;;1.73;0.10;;;25.50;84.40;;;;;;5035836;28;20032;-73
2022/06/04 09:14:58;;;;;;;0.00;0.00;;;25.20;83.90;;;;;;5035600;28;20499;-74
2022/06/04 09:17:30;;;;;;;0.00;0.00;;;25.40;84.50;;;;;;5017924;28;20030;-75
2022/06/04 09:19:56;;;;;;;;;;;25.80;84.00;;;;;;5036886;28;20030;-75
2022/06/04 09:22:30;;;;;;;0.00;0.00;;;26.50;78.90;;;;;;5002634;28;20248;-75
2022/06/04 09:24:55;;;;;;;0.00;0.00;;;26.80;75.80;;;;;;5018238;28;20032;-74
2022/06/04 09:27:32;;;;;;;0.00;0.00;;;27.00;75.60;;;;;;5035491;28;20029;-75
2022/06/04 09:30:17;;;;;;;0.00;0.00;;;27.10;75.10;;;;;;5003061;28;20029;-77
2022/06/04 09:32:53;;;;;;;0.00;0.00;;;27.40;76.70;;;;;;5035405;28;20037;-76
2022/06/04 09:35:26;;;;;;;0.00;0.00;;;27.60;72.70;;;;;;5017435;28;20460;-74
2022/06/04 09:37:52;;;;;;;0.00;0.00;;;27.80;71.20;;;;;;5033967;28;20032;-74
2022/06/04 09:40:28;;;;;;;0.00;0.00;;;28.10;68.00;;;;;;4999688;28;20481;-73
2022/06/04 09:43:23;;;;;;;0.00;0.00;;;28.10;67.00;;;;;;5033875;28;20021;-74
2022/06/04 09:45:58;;;;;;;0.00;0.00;;;28.00;67.10;;;;;;5006140;28;20556;-75
2022/06/04 09:48:51;;;;;;;15.25;0.38;;;28.20;71.40;;;;;;5017141;28;20057;-74
2022/06/04 09:51:27;;;;;;;0.00;0.00;;;28.20;68.30;;;;;;5030631;28;20026;-75
2022/06/04 09:54:05;;;;;;;0.00;0.00;;;28.20;68.90;;;;;;5034447;28;20025;-75
2022/06/04 09:56:40;;;;;;;0.00;0.00;;;28.40;66.40;;;;;;5000674;28;20026;-74
2022/06/04 09:59:14;;;;;;;0.00;0.00;;;28.60;66.50;;;;;;5016341;28;20440;-74
2022/06/04 10:01:40;;;;;;;0.00;0.00;;;28.80;64.20;;;;;;5034152;28;20021;-73
2022/06/04 10:04:14;;;;;;;0.00;0.00;;;28.80;62.10;;;;;;5034078;28;20075;-74
2022/06/04 10:06:41;;;;;;;0.00;0.00;;;29.00;64.70;;;;;;5034271;28;20030;-73
2022/06/04 10:12:07;;;;;;;0.00;0.00;;;29.10;60.60;;;;;;5016328;28;20052;-72
2022/06/04 10:14:39;;;;;;;0.10;0.10;;;29.30;63.40;;;;;;5016507;28;20033;-74
2022/06/04 10:17:16;;;;;;;0.35;0.25;;;29.60;61.40;;;;;;5034064;28;20030;-75
2022/06/04 10:19:51;;;;;;;0.00;0.00;;;30.00;59.10;;;;;;5034166;28;20022;-74
2022/06/04 10:22:18;;;;;;;0.00;0.00;;;30.00;59.30;;;;;;5034753;28;20022;-74
2022/06/04 10:24:58;;;;;;;0.00;0.00;;;30.20;58.70;;;;;;5034817;28;20105;-74
2022/06/04 10:27:46;;;;;;;0.52;0.03;;;30.20;57.00;;;;;;5034165;28;20524;-74
2022/06/04 10:30:24;;;;;;;0.00;0.00;;;30.10;57.00;;;;;;5036118;28;20136;-74
2022/06/04 10:33:20;;;;;;;0.00;0.00;;;30.00;57.90;;;;;;5017644;28;20079;-74
2022/06/04 10:36:01;;;;;;;0.00;0.00;;;30.20;56.10;;;;;;5016498;28;20053;-74
2022/06/04 10:38:38;;;;;;;0.00;0.00;;;30.30;55.20;;;;;;5015518;28;20059;-74
2022/06/04 10:41:23;;;;;;;0.00;0.00;;;30.90;53.20;;;;;;5033548;28;20033;-73
2022/06/04 10:44:07;;;;;;;0.00;0.00;;;31.00;53.50;;;;;;5033956;28;20098;-73
2022/06/04 10:46:53;;;;;;;0.00;0.00;;;30.80;52.90;;;;;;5016164;28;20037;-73
2022/06/04 10:49:30;;;;;;;0.00;0.00;;;30.90;53.40;;;;;;4999694;28;20053;-74
2022/06/04 10:52:57;;;;;;;0.20;0.20;;;31.20;53.80;;;;;;5034455;28;20546;-74
2022/06/04 10:55:44;;;;;;;0.00;0.00;;;31.20;51.50;;;;;;4928933;29;20039;-74
2022/06/04 10:58:17;;;;;;;0.10;0.10;;;30.80;53.10;;;;;;4933851;29;20574;-74
2022/06/04 11:01:06;;;;;;;0.30;0.10;;;31.00;51.60;;;;;;5001978;28;20033;-74
2022/06/04 11:04:13;;;;;;;0.00;0.00;;;31.00;52.10;;;;;;5033091;28;20025;-74
2022/06/04 11:06:46;;;;;;;2.17;0.55;;;31.20;52.00;;;;;;4993331;28;20056;-73
2022/06/04 11:09:18;;;;;;;0.20;0.20;;;30.60;51.30;;;;;;4999501;28;20038;-74
2022/06/04 11:11:55;;;;;;;0.28;0.28;;;30.40;52.20;;;;;;4998974;28;20033;-75
2022/06/04 11:14:25;;;;;;;0.00;0.00;;;30.60;52.00;;;;;;5033567;28;20148;-75
2022/06/04 11:17:11;;;;;;;0.10;0.10;;;30.70;52.40;;;;;;5033131;28;20039;-75
2022/06/04 11:19:55;;;;;;;0.00;0.00;;;31.30;51.30;;;;;;5015321;28;20160;-75
2022/06/04 11:22:25;;;;;;;0.00;0.00;;;31.10;51.10;;;;;;5015711;28;20022;-75
2022/06/04 11:25:24;;;;;;;0.00;0.00;;;31.10;51.50;;;;;;5015603;28;20075;-75
2022/06/04 11:27:58;;;;;;;0.20;0.20;;;31.40;49.90;;;;;;5032399;28;20026;-75
2022/06/04 11:30:39;;;;;;;0.45;0.20;;;31.30;49.90;;;;;;5033251;28;20048;-75
2022/06/04 11:33:20;;;;;;;0.00;0.00;;;31.30;50.30;;;;;;5033351;28;20026;-74
2022/06/04 11:35:55;;;;;;;0.65;0.20;;;31.50;50.30;;;;;;5033399;28;20057;-75
2022/06/04 11:38:45;;;;;;;0.35;0.35;;;31.50;50.50;;;;;;5015263;28;20112;-75
2022/06/04 11:41:25;;;;;;;0.00;0.00;;;31.30;51.20;;;;;;5035724;28;20026;-74
2022/06/04 11:44:05;;;;;;;0.70;0.28;;;31.10;52.60;;;;;;5015534;28;20021;-74
2022/06/04 11:46:31;;;;;;;2.38;0.65;;;30.80;52.10;;;;;;5015706;28;20083;-74
2022/06/04 11:49:31;;;;;;;6.65;0.55;;;30.70;52.60;;;;;;5016081;28;20029;-75
2022/06/04 11:52:07;;;;;;;0.10;0.10;;;30.70;52.00;;;;;;5033776;28;20053;-76
2022/06/04 11:54:43;;;;;;;0.00;0.00;;;30.80;52.50;;;;;;5032904;28;20029;-74
2022/06/04 11:57:46;;;;;;;0.00;0.00;;;30.60;52.30;;;;;;4998752;28;20022;-74
2022/06/04 12:00:32;;;;;;;0.00;0.00;;;30.60;54.20;;;;;;5032864;28;20051;-74
2022/06/04 12:03:18;;;;;;;3.83;0.20;;;30.60;53.20;;;;;;5032896;28;20029;-74
2022/06/04 12:05:56;;;;;;;0.00;0.00;;;30.60;52.60;;;;;;5014903;28;20033;-75
2022/06/04 12:08:27;;;;;;;0.10;0.10;;;30.50;53.00;;;;;;5014720;28;20108;-74
2022/06/04 12:10:57;;;;;;;0.00;0.00;;;30.60;53.50;;;;;;5033089;28;20075;-75
2022/06/04 12:13:44;;;;;;;0.00;0.00;;;30.30;55.00;;;;;;5032899;28;20113;-74
2022/06/04 12:16:18;;;;;;;0.00;0.00;;;30.00;55.70;;;;;;5014823;28;20018;-74
2022/06/04 12:18:55;;;;;;;0.00;0.00;;;30.00;57.50;;;;;;5032699;28;20049;-74
2022/06/04 12:24:33;;;;;;;0.10;0.10;;;29.90;56.90;;;;;;5033347;28;20044;-73
2022/06/04 12:27:21;;;;;;;7.40;1.75;;;29.70;57.40;;;;;;5032726;28;20052;-73
2022/06/04 12:29:50;;;;;;;0.00;0.00;;;29.60;57.30;;;;;;5033196;28;20045;-73
2022/06/04 12:32:24;;;;;;;0.00;0.00;;;29.60;56.40;;;;;;5014542;28;20405;-74
2022/06/04 12:35:08;;;;;;;0.00;0.00;;;29.60;56.40;;;;;;5032560;28;20042;-73
2022/06/04 12:37:37;;;;;;;0.30;0.30;;;29.30;57.00;;;;;;5032310;28;20122;-73
2022/06/04 12:40:24;;;;;;;0.93;0.60;;;29.30;57.40;;;;;;5014493;28;20025;-73
2022/06/04 12:43:30;;;;;;;0.30;0.30;;;29.20;58.00;;;;;;5014908;28;20040;-74
2022/06/04 12:46:11;;;;;;;0.10;0.10;;;29.20;57.90;;;;;;5014608;28;20112;-73
2022/06/04 12:48:44;;;;;;;0.00;0.00;;;29.20;58.60;;;;;;5014916;28;20113;-73
2022/06/04 12:51:40;;;;;;;0.00;0.00;;;29.40;58.70;;;;;;5034153;28;20099;-74
2022/06/04 12:54:40;;;;;;;0.20;0.10;;;29.70;57.30;;;;;;5032205;28;20026;-74
2022/06/04 12:57:29;;;;;;;0.20;0.20;;;29.60;57.30;;;;;;5014976;28;20065;-74
2022/06/04 13:00:18;;;;;;;0.10;0.10;;;29.40;57.30;;;;;;5020408;28;20025;-72
2022/06/04 13:03:06;;;;;;;0.05;0.05;;;29.50;56.90;;;;;;5029337;28;20017;-74
2022/06/04 13:05:33;;;;;;;0.35;0.03;;;29.40;56.50;;;;;;5025111;28;20025;-75
2022/06/04 13:08:17;;;;;;;0.00;0.00;;;29.30;56.80;;;;;;5051902;23;20090;-74
2022/06/04 13:11:03;;;;;;;0.10;0.10;;;29.30;56.60;;;;;;5051411;28;20028;-74
2022/06/04 13:14:10;;;;;;;0.10;0.10;;;29.10;57.40;;;;;;5051440;28;20024;-74
2022/06/04 13:16:55;;;;;;;0.50;0.50;;;28.70;57.70;;;;;;4973803;28;20037;-74
2022/06/04 13:19:39;;;;;;;0.08;0.08;;;28.50;59.50;;;;;;5051983;28;20523;-73
2022/06/04 13:22:17;;;;;;;0.00;0.00;;;28.50;59.20;;;;;;5054977;28;20032;-73
2022/06/04 13:24:43;;;;;;;0.25;0.25;;;28.70;60.00;;;;;;5054966;28;20406;-73
2022/06/04 13:27:16;;;;;;;0.45;0.20;;;29.00;59.30;;;;;;5036929;28;20535;-73
2022/06/04 13:29:42;;;;;;;0.00;0.00;;;29.00;58.30;;;;;;5054882;28;20026;-73
2022/06/04 13:32:14;;;;;;;0.03;0.03;;;28.70;58.80;;;;;;5054817;28;20419;-73
2022/06/04 13:34:40;;;;;;;3.90;0.80;;;28.60;59.80;;;;;;5054748;28;20131;-73